Terminal Aerodrome Forecast
Issued by NWS

Home | Current Version | Previous Version | Text Only | Print | Product List | Glossary On
Versions: 1 2 3 4 5 6 7 8 9 10 11 12 13 14 15 16 17 18 19
000
FTUS46 KMFR 271152
TAFRBG
TAF
KRBG 271152Z 2712/2812 00000KT P6SM SCT080 OVC100
     FM271500 16003KT 6SM -RA BR SCT040 OVC060
     FM272000 18005KT P6SM -RA SCT020 OVC040
     FM280400 00000KT P6SM -SHRA BKN020 OVC040=

USA.gov is the U.S. government's official web portal to all federal, state and local government web resources and services.